createdAt,value
2018-09-22T00:00:06.235Z,0.00
2018-09-22T00:01:06.110Z,0.00
2018-09-22T00:02:05.989Z,0.00
2018-09-22T00:03:05.864Z,0.00
2018-09-22T00:04:05.740Z,0.00
2018-09-22T00:05:05.617Z,0.00
2018-09-22T00:06:05.494Z,0.00
2018-09-22T00:07:05.369Z,0.00
2018-09-22T00:08:05.244Z,0.00
2018-09-22T00:09:05.120Z,0.00
2018-09-22T00:10:04.999Z,0.00
2018-09-22T00:11:04.872Z,0.00
2018-09-22T00:12:04.748Z,0.00
2018-09-22T00:13:04.627Z,0.00
2018-09-22T00:14:04.522Z,0.00
2018-09-22T00:15:04.376Z,0.00
2018-09-22T00:16:04.253Z,0.00
2018-09-22T00:17:04.131Z,0.00
2018-09-22T00:18:04.006Z,0.00
2018-09-22T00:19:03.883Z,0.00
2018-09-22T00:20:03.760Z,0.00
2018-09-22T00:21:03.635Z,0.00
2018-09-22T00:22:03.512Z,0.00
2018-09-22T00:23:03.387Z,0.00
2018-09-22T00:24:03.264Z,0.00
2018-09-22T00:25:03.140Z,0.00
2018-09-22T00:26:03.017Z,0.00
2018-09-22T00:27:02.892Z,0.00
2018-09-22T00:28:02.765Z,0.00
2018-09-22T00:29:02.645Z,0.00
2018-09-22T00:30:02.525Z,0.00
2018-09-22T00:31:02.395Z,0.00
2018-09-22T00:32:02.275Z,0.00
2018-09-22T00:33:02.147Z,0.00
2018-09-22T00:34:02.022Z,0.00
2018-09-22T00:35:01.898Z,0.00
2018-09-22T00:36:01.776Z,0.00
2018-09-22T00:37:01.650Z,0.00
2018-09-22T00:38:01.527Z,0.00
2018-09-22T00:39:01.402Z,0.00
2018-09-22T00:40:01.278Z,0.00
2018-09-22T00:41:01.156Z,0.00
2018-09-22T00:42:01.031Z,0.00
2018-09-22T00:43:00.906Z,0.00
2018-09-22T00:44:00.783Z,0.00
2018-09-22T00:45:00.659Z,0.00
2018-09-22T00:46:00.531Z,0.00
2018-09-22T00:47:00.406Z,0.00
2018-09-22T00:48:00.283Z,0.00
2018-09-22T00:49:00.161Z,0.00
2018-09-22T00:50:00.037Z,0.00
2018-09-22T00:50:59.911Z,0.00
2018-09-22T00:51:59.790Z,0.00
2018-09-22T00:52:59.663Z,0.00
2018-09-22T00:53:59.539Z,0.00
2018-09-22T00:54:59.415Z,0.00
2018-09-22T00:55:59.295Z,0.00
2018-09-22T00:56:59.164Z,0.00
2018-09-22T00:57:59.048Z,0.00
2018-09-22T00:58:58.917Z,0.00
2018-09-22T00:59:58.793Z,0.00
2018-09-22T01:00:58.669Z,0.00
2018-09-22T01:01:58.545Z,0.00
2018-09-22T01:02:58.418Z,0.00
2018-09-22T01:03:58.296Z,0.00
2018-09-22T01:04:58.171Z,0.00
2018-09-22T01:05:58.046Z,0.00
2018-09-22T01:06:57.923Z,0.00
2018-09-22T01:07:57.806Z,0.00
2018-09-22T01:08:57.675Z,0.00
2018-09-22T01:09:57.550Z,0.00
2018-09-22T01:10:57.422Z,0.00
2018-09-22T01:11:57.301Z,0.00
2018-09-22T01:12:57.175Z,0.00
2018-09-22T01:13:57.050Z,0.00
2018-09-22T01:14:56.928Z,0.00
2018-09-22T01:15:56.856Z,0.00
2018-09-22T01:16:56.676Z,0.00
2018-09-22T01:17:56.551Z,0.00
2018-09-22T01:18:56.427Z,0.00
2018-09-22T01:19:56.303Z,0.00
2018-09-22T01:20:56.176Z,0.00
2018-09-22T01:21:56.052Z,0.00
2018-09-22T01:22:55.933Z,0.00
2018-09-22T01:23:55.804Z,0.00
2018-09-22T01:24:55.681Z,0.00
2018-09-22T01:25:55.551Z,0.00
2018-09-22T01:26:55.428Z,0.00
2018-09-22T01:27:55.301Z,0.00
2018-09-22T01:28:55.179Z,0.00
2018-09-22T01:29:55.054Z,0.00
2018-09-22T01:30:54.929Z,0.00
2018-09-22T01:31:54.804Z,0.00
2018-09-22T01:32:54.682Z,0.00
2018-09-22T01:33:54.556Z,0.00
2018-09-22T01:34:54.430Z,0.00
2018-09-22T01:35:54.305Z,0.00
2018-09-22T01:36:54.182Z,0.00
2018-09-22T01:37:54.059Z,0.00
2018-09-22T01:38:53.933Z,0.00
2018-09-22T01:39:53.806Z,0.00
2018-09-22T01:40:53.684Z,0.00
2018-09-22T01:41:53.557Z,0.00
2018-09-22T01:42:53.433Z,0.00
2018-09-22T01:43:53.309Z,0.00
2018-09-22T01:44:53.181Z,0.00
2018-09-22T01:45:53.057Z,0.00
2018-09-22T01:46:52.935Z,0.00
2018-09-22T01:47:52.808Z,0.00
2018-09-22T01:48:52.684Z,0.00
2018-09-22T01:49:52.559Z,0.00
2018-09-22T01:50:52.433Z,0.00
2018-09-22T01:51:52.312Z,0.00
2018-09-22T01:52:52.188Z,0.00
2018-09-22T01:53:52.061Z,0.00
2018-09-22T01:54:51.934Z,0.00
2018-09-22T01:55:51.815Z,0.00
2018-09-22T01:56:51.686Z,0.00
2018-09-22T01:57:51.560Z,0.00
2018-09-22T01:58:51.434Z,0.00
2018-09-22T01:59:51.309Z,0.00
2018-09-22T02:00:51.186Z,0.00
2018-09-22T02:01:51.062Z,0.00
2018-09-22T02:02:50.936Z,0.00
2018-09-22T02:03:50.812Z,0.00
2018-09-22T02:04:50.689Z,0.00
2018-09-22T02:05:50.561Z,0.00
2018-09-22T02:06:50.437Z,0.00
2018-09-22T02:07:50.310Z,0.00
2018-09-22T02:08:50.187Z,0.00
2018-09-22T02:09:50.062Z,0.00
2018-09-22T02:10:49.938Z,0.00
2018-09-22T02:11:49.811Z,0.00
2018-09-22T02:12:49.686Z,0.00
2018-09-22T02:13:49.562Z,0.00
2018-09-22T02:14:49.436Z,0.00
2018-09-22T02:15:49.311Z,0.00
2018-09-22T02:16:49.184Z,0.00
2018-09-22T02:17:49.063Z,0.00
2018-09-22T02:18:48.936Z,0.00
2018-09-22T02:19:48.809Z,0.00
2018-09-22T02:20:48.685Z,0.00
2018-09-22T02:21:48.560Z,0.00
2018-09-22T02:22:48.436Z,0.00
2018-09-22T02:23:48.312Z,0.00
2018-09-22T02:24:48.192Z,0.00
2018-09-22T02:25:48.063Z,0.00
2018-09-22T02:26:47.932Z,0.00
2018-09-22T02:27:47.809Z,0.00
2018-09-22T02:28:47.682Z,0.00
2018-09-22T02:29:47.558Z,0.00
2018-09-22T02:30:47.436Z,0.00
2018-09-22T02:31:47.307Z,0.00
2018-09-22T02:32:47.187Z,0.00
2018-09-22T02:33:47.055Z,0.00
2018-09-22T02:34:46.934Z,0.00
2018-09-22T02:35:46.809Z,0.00
2018-09-22T02:36:46.679Z,0.00
2018-09-22T02:37:46.560Z,0.00
2018-09-22T02:38:46.430Z,0.00
2018-09-22T02:39:46.300Z,0.00
2018-09-22T02:40:46.177Z,0.00
2018-09-22T02:41:46.052Z,0.00
2018-09-22T02:42:45.926Z,0.00
2018-09-22T02:43:45.808Z,0.00
2018-09-22T02:44:45.675Z,0.00
2018-09-22T02:45:45.548Z,0.00
2018-09-22T02:46:45.423Z,0.00
2018-09-22T02:47:45.297Z,0.00
2018-09-22T02:48:45.172Z,0.00
2018-09-22T02:49:45.046Z,0.00
2018-09-22T02:50:44.920Z,0.00
2018-09-22T02:51:44.797Z,0.00
2018-09-22T02:52:44.669Z,0.00
2018-09-22T02:53:44.546Z,0.00
2018-09-22T02:54:44.417Z,0.00
2018-09-22T02:55:44.293Z,0.00
2018-09-22T02:56:44.165Z,0.00
2018-09-22T02:57:44.042Z,0.00
2018-09-22T02:58:43.914Z,0.00
2018-09-22T02:59:43.790Z,0.00
2018-09-22T03:00:43.662Z,0.00
2018-09-22T03:01:43.536Z,0.00
2018-09-22T03:02:43.409Z,0.00
2018-09-22T03:03:43.285Z,0.00
2018-09-22T03:04:43.164Z,0.00
2018-09-22T03:05:43.051Z,0.00
2018-09-22T03:06:42.921Z,0.00
2018-09-22T03:07:42.781Z,0.00
2018-09-22T03:08:42.700Z,0.00
2018-09-22T03:09:42.531Z,0.00
2018-09-22T03:10:42.406Z,0.00
2018-09-22T03:11:42.278Z,0.00
2018-09-22T03:12:42.155Z,0.00
2018-09-22T03:13:42.025Z,0.00
2018-09-22T03:14:41.946Z,0.00
2018-09-22T03:15:41.773Z,0.00
2018-09-22T03:16:41.651Z,0.00
2018-09-22T03:17:41.529Z,0.00
2018-09-22T03:18:41.397Z,0.00
2018-09-22T03:19:41.271Z,0.00
2018-09-22T03:20:41.144Z,0.00
2018-09-22T03:21:41.019Z,0.00
2018-09-22T03:22:40.892Z,0.00
2018-09-22T03:23:40.768Z,0.00
2018-09-22T03:24:40.642Z,0.00
2018-09-22T03:25:40.515Z,0.00
2018-09-22T03:26:40.388Z,0.00
2018-09-22T03:27:40.261Z,0.00
2018-09-22T03:28:40.135Z,0.00
2018-09-22T03:29:40.010Z,0.00
2018-09-22T03:30:39.881Z,0.00
2018-09-22T03:31:39.756Z,0.00
2018-09-22T03:32:39.628Z,0.00
2018-09-22T03:33:39.503Z,0.00
2018-09-22T03:34:39.375Z,0.00
2018-09-22T03:35:39.249Z,0.00
2018-09-22T03:36:39.123Z,0.00
2018-09-22T03:37:38.999Z,0.00
2018-09-22T03:38:38.870Z,0.00
2018-09-22T03:39:38.744Z,0.00
2018-09-22T03:40:38.618Z,0.00
2018-09-22T03:41:38.491Z,0.00
2018-09-22T03:42:38.365Z,0.00
2018-09-22T03:43:38.241Z,0.00
2018-09-22T03:44:38.114Z,0.00
2018-09-22T03:45:37.988Z,0.00
2018-09-22T03:46:37.859Z,0.00
2018-09-22T03:47:37.737Z,0.00
2018-09-22T03:48:37.606Z,0.00
2018-09-22T03:49:37.486Z,0.00
2018-09-22T03:50:37.356Z,0.00
2018-09-22T03:51:37.233Z,0.00
2018-09-22T03:52:37.102Z,0.00
2018-09-22T03:53:36.977Z,0.00
2018-09-22T03:54:36.853Z,0.00
2018-09-22T03:55:36.727Z,0.00
2018-09-22T03:56:36.597Z,0.00
2018-09-22T03:57:36.471Z,0.00
2018-09-22T03:58:36.344Z,0.00
2018-09-22T03:59:36.220Z,0.00
2018-09-22T04:00:36.091Z,0.00
2018-09-22T04:01:35.968Z,0.00
2018-09-22T04:02:35.839Z,0.00
2018-09-22T04:03:35.711Z,0.00
2018-09-22T04:04:35.584Z,0.00
2018-09-22T04:05:35.458Z,0.00
2018-09-22T04:06:35.334Z,0.00
2018-09-22T04:07:35.205Z,0.00
2018-09-22T04:08:35.078Z,0.00
2018-09-22T04:09:34.952Z,0.00
2018-09-22T04:10:34.827Z,0.00
2018-09-22T04:11:34.700Z,0.00
2018-09-22T04:12:34.574Z,0.00
2018-09-22T04:13:34.447Z,0.00
2018-09-22T04:14:34.318Z,0.00
2018-09-22T04:15:34.190Z,0.00
2018-09-22T04:16:34.063Z,0.00
2018-09-22T04:17:33.939Z,0.00
2018-09-22T04:18:33.809Z,0.00
2018-09-22T04:19:33.686Z,0.00
2018-09-22T04:20:33.556Z,0.00
2018-09-22T04:21:33.429Z,0.00
2018-09-22T04:22:33.304Z,0.00
2018-09-22T04:23:33.174Z,0.00
2018-09-22T04:24:33.049Z,0.00
2018-09-22T04:25:32.923Z,0.00
2018-09-22T04:26:32.795Z,0.00
2018-09-22T04:27:32.668Z,0.00
2018-09-22T04:28:32.542Z,0.00
2018-09-22T04:29:32.415Z,0.00
2018-09-22T04:30:32.300Z,0.00
2018-09-22T04:31:32.160Z,0.00
2018-09-22T04:32:32.034Z,0.00
2018-09-22T04:33:31.920Z,0.00
2018-09-22T04:34:31.782Z,0.00
2018-09-22T04:35:31.658Z,0.00
2018-09-22T04:36:31.526Z,0.00
2018-09-22T04:37:31.398Z,0.00
2018-09-22T04:38:31.274Z,0.00
2018-09-22T04:39:31.152Z,0.00
2018-09-22T04:40:31.019Z,0.00
2018-09-22T04:41:30.893Z,0.00
2018-09-22T04:42:30.771Z,0.00
2018-09-22T04:43:30.637Z,0.00
2018-09-22T04:44:30.512Z,0.00
2018-09-22T04:45:30.387Z,0.00
2018-09-22T04:46:30.257Z,0.00
2018-09-22T04:47:30.131Z,0.00
2018-09-22T04:48:30.006Z,0.00
2018-09-22T04:49:29.878Z,0.00
2018-09-22T04:50:29.751Z,0.00
2018-09-22T04:51:29.624Z,0.00
2018-09-22T04:52:29.501Z,0.00
2018-09-22T04:53:29.403Z,0.00
2018-09-22T04:54:29.276Z,0.00
2018-09-22T04:55:29.318Z,0.00
2018-09-22T04:56:28.994Z,0.00
2018-09-22T04:57:28.866Z,4.00
2018-09-22T04:58:28.735Z,4.00
2018-09-22T04:59:28.610Z,4.00
2018-09-22T05:00:28.485Z,4.00
2018-09-22T05:01:28.357Z,4.00
2018-09-22T05:02:28.230Z,4.00
2018-09-22T05:03:28.103Z,4.00
2018-09-22T05:04:27.976Z,4.00
2018-09-22T05:05:27.849Z,4.00
2018-09-22T05:06:27.721Z,4.00
2018-09-22T05:07:27.593Z,4.00
2018-09-22T05:08:27.465Z,8.00
2018-09-22T05:09:27.345Z,8.00
2018-09-22T05:10:27.212Z,8.00
2018-09-22T05:11:27.136Z,12.00
2018-09-22T05:12:26.958Z,12.00
2018-09-22T05:13:26.832Z,12.00
2018-09-22T05:14:26.702Z,16.00
2018-09-22T05:15:26.582Z,16.00
2018-09-22T05:16:26.452Z,16.00
2018-09-22T05:17:26.345Z,20.00
2018-09-22T05:18:26.194Z,20.00
2018-09-22T05:19:26.066Z,20.00
2018-09-22T05:20:25.982Z,20.00
2018-09-22T05:21:25.815Z,20.00
2018-09-22T05:22:25.685Z,20.00
2018-09-22T05:23:25.558Z,20.00
2018-09-22T05:24:25.443Z,20.00
2018-09-22T05:25:25.306Z,28.00
2018-09-22T05:26:25.176Z,32.00
2018-09-22T05:27:25.144Z,32.00
2018-09-22T05:28:24.923Z,32.00
2018-09-22T05:29:24.797Z,32.00
2018-09-22T05:30:24.666Z,36.00
2018-09-22T05:31:24.631Z,36.00
2018-09-22T05:32:24.551Z,40.00
2018-09-22T05:33:24.290Z,44.00
2018-09-22T05:34:24.157Z,48.00
2018-09-22T05:35:24.038Z,52.00
2018-09-22T05:36:23.906Z,52.00
2018-09-22T05:37:23.777Z,56.00
2018-09-22T05:38:23.649Z,56.00
2018-09-22T05:39:23.528Z,60.00
2018-09-22T05:40:23.415Z,60.00
2018-09-22T05:41:23.266Z,60.00
2018-09-22T05:42:23.142Z,60.00
2018-09-22T05:43:23.055Z,56.00
2018-09-22T05:44:22.899Z,60.00
2018-09-22T05:45:22.757Z,60.00
2018-09-22T05:46:22.630Z,64.00
2018-09-22T05:47:22.505Z,68.00
2018-09-22T05:48:22.551Z,72.00
2018-09-22T05:49:22.256Z,76.00
2018-09-22T05:50:22.404Z,84.00
2018-09-22T05:51:21.994Z,88.00
2018-09-22T05:52:22.202Z,96.00
2018-09-22T05:53:21.742Z,100.00
2018-09-22T05:54:21.610Z,108.00
2018-09-22T05:55:21.484Z,112.00
2018-09-22T05:56:21.356Z,124.00
2018-09-22T05:57:21.230Z,124.00
2018-09-22T05:58:21.101Z,124.00
2018-09-22T05:59:20.980Z,128.00
2018-09-22T06:00:20.849Z,128.00
2018-09-22T06:01:20.721Z,132.00
2018-09-22T06:02:20.592Z,136.00
2018-09-22T06:03:20.483Z,140.00
2018-09-22T06:04:20.336Z,140.00
2018-09-22T06:05:20.210Z,140.00
2018-09-22T06:06:20.081Z,140.00
2018-09-22T06:07:19.955Z,144.00
2018-09-22T06:08:19.827Z,144.00
2018-09-22T06:09:19.699Z,144.00
2018-09-22T06:10:19.573Z,156.00
2018-09-22T06:11:19.446Z,172.00
2018-09-22T06:12:19.318Z,184.00
2018-09-22T06:13:19.190Z,192.00
2018-09-22T06:14:19.069Z,208.00
2018-09-22T06:15:18.936Z,212.00
2018-09-22T06:16:18.809Z,204.00
2018-09-22T06:17:18.682Z,204.00
2018-09-22T06:18:18.558Z,212.00
2018-09-22T06:19:18.426Z,220.00
2018-09-22T06:20:18.299Z,232.00
2018-09-22T06:21:18.181Z,256.00
2018-09-22T06:22:18.046Z,284.00
2018-09-22T06:23:17.968Z,316.00
2018-09-22T06:24:17.804Z,364.00
2018-09-22T06:25:17.669Z,412.00
2018-09-22T06:26:17.535Z,464.00
2018-09-22T06:27:17.407Z,456.00
2018-09-22T06:28:17.282Z,420.00
2018-09-22T06:29:17.155Z,408.00
2018-09-22T06:30:17.028Z,396.00
2018-09-22T06:31:16.957Z,400.00
2018-09-22T06:32:16.773Z,440.00
2018-09-22T06:33:16.645Z,460.00
2018-09-22T06:34:16.518Z,488.00
2018-09-22T06:35:16.389Z,532.00
2018-09-22T06:36:16.264Z,580.00
2018-09-22T06:37:16.164Z,620.00
2018-09-22T06:38:16.008Z,636.00
2018-09-22T06:39:15.881Z,664.00
2018-09-22T06:40:15.754Z,716.00
2018-09-22T06:41:15.632Z,788.00
2018-09-22T06:42:15.500Z,828.00
2018-09-22T06:43:15.376Z,824.00
2018-09-22T06:44:15.299Z,784.00
2018-09-22T06:45:15.137Z,800.00
2018-09-22T06:46:15.047Z,824.00
2018-09-22T06:47:14.862Z,836.00
2018-09-22T06:48:14.737Z,828.00
2018-09-22T06:49:14.609Z,852.00
2018-09-22T06:50:14.487Z,840.00
2018-09-22T06:51:14.353Z,852.00
2018-09-22T06:52:14.226Z,804.00
2018-09-22T06:53:14.101Z,720.00
2018-09-22T06:54:13.972Z,708.00
2018-09-22T06:55:13.845Z,712.00
2018-09-22T06:56:13.719Z,680.00
2018-09-22T06:57:13.593Z,660.00
2018-09-22T06:58:13.462Z,676.00
2018-09-22T06:59:13.335Z,744.00
2018-09-22T07:00:13.212Z,852.00
2018-09-22T07:01:13.084Z,900.00
2018-09-22T07:02:12.955Z,948.00
2018-09-22T07:03:12.828Z,1036.00
2018-09-22T07:04:12.701Z,964.00
2018-09-22T07:05:12.574Z,972.00
2018-09-22T07:06:12.447Z,1008.00
2018-09-22T07:07:12.326Z,976.00
2018-09-22T07:08:12.194Z,992.00
2018-09-22T07:09:12.065Z,980.00
2018-09-22T07:10:11.937Z,1008.00
2018-09-22T07:11:11.811Z,1020.00
2018-09-22T07:12:11.681Z,1072.00
2018-09-22T07:13:11.556Z,1096.00
2018-09-22T07:14:11.427Z,1164.00
2018-09-22T07:15:11.300Z,1224.00
2018-09-22T07:16:11.173Z,1348.00
2018-09-22T07:17:11.047Z,1472.00
2018-09-22T07:18:10.918Z,1484.00
2018-09-22T07:19:10.794Z,1556.00
2018-09-22T07:20:10.663Z,1596.00
2018-09-22T07:21:10.536Z,1748.00
2018-09-22T07:22:10.408Z,1740.00
2018-09-22T07:23:10.288Z,1700.00
2018-09-22T07:24:10.154Z,1664.00
2018-09-22T07:25:10.026Z,1452.00
2018-09-22T07:26:09.898Z,1288.00
2018-09-22T07:27:09.771Z,1148.00
2018-09-22T07:28:09.645Z,1156.00
2018-09-22T07:29:09.517Z,1068.00
2018-09-22T07:30:09.390Z,972.00
2018-09-22T07:31:09.268Z,900.00
2018-09-22T07:32:09.139Z,884.00
2018-09-22T07:33:09.009Z,892.00
2018-09-22T07:34:08.895Z,960.00
2018-09-22T07:35:08.755Z,1012.00
2018-09-22T07:36:08.627Z,1032.00
2018-09-22T07:37:08.499Z,1044.00
2018-09-22T07:38:08.391Z,1064.00
2018-09-22T07:39:08.243Z,1080.00
2018-09-22T07:40:08.118Z,1104.00
2018-09-22T07:41:07.994Z,1140.00
2018-09-22T07:42:07.864Z,1144.00
2018-09-22T07:43:07.741Z,1152.00
2018-09-22T07:44:07.610Z,1168.00
2018-09-22T07:45:07.485Z,1200.00
2018-09-22T07:46:07.355Z,1252.00
2018-09-22T07:47:07.229Z,1276.00
2018-09-22T07:48:07.103Z,1080.00
2018-09-22T07:49:06.972Z,980.00
2018-09-22T07:50:06.848Z,1024.00
2018-09-22T07:51:06.720Z,1040.00
2018-09-22T07:52:06.594Z,976.00
2018-09-22T07:53:06.465Z,976.00
2018-09-22T07:54:06.340Z,1012.00
2018-09-22T07:55:06.212Z,1116.00
2018-09-22T07:56:06.086Z,1196.00
2018-09-22T07:57:06.014Z,1292.00
2018-09-22T07:58:05.833Z,1360.00
2018-09-22T07:59:05.706Z,1424.00
2018-09-22T08:00:05.579Z,1308.00
2018-09-22T08:01:05.452Z,1200.00
2018-09-22T08:02:05.323Z,1148.00
2018-09-22T08:03:05.199Z,1208.00
2018-09-22T08:04:05.070Z,1248.00
2018-09-22T08:05:04.945Z,1192.00
2018-09-22T08:06:04.819Z,1148.00
2018-09-22T08:07:04.693Z,1124.00
2018-09-22T08:08:04.568Z,1124.00
2018-09-22T08:09:04.435Z,1112.00
2018-09-22T08:10:04.310Z,1236.00
2018-09-22T08:11:04.182Z,1436.00
2018-09-22T08:12:04.057Z,1760.00
2018-09-22T08:13:03.931Z,2100.00
2018-09-22T08:14:03.802Z,1980.00
2018-09-22T08:15:03.677Z,1784.00
2018-09-22T08:16:03.548Z,1712.00
2018-09-22T08:17:03.421Z,1764.00
2018-09-22T08:18:03.296Z,1816.00
2018-09-22T08:19:03.171Z,1860.00
2018-09-22T08:20:03.042Z,1872.00
2018-09-22T08:21:02.916Z,1852.00
2018-09-22T08:22:02.788Z,1764.00
2018-09-22T08:23:02.662Z,1800.00
2018-09-22T08:24:02.536Z,1884.00
2018-09-22T08:25:02.411Z,2072.00
2018-09-22T08:26:02.282Z,2256.00
2018-09-22T08:27:02.161Z,2620.00
2018-09-22T08:28:02.029Z,2692.00
2018-09-22T08:29:01.901Z,3048.00
2018-09-22T08:30:01.777Z,2964.00
2018-09-22T08:31:01.650Z,3204.00
2018-09-22T08:32:01.570Z,3316.00
2018-09-22T08:33:01.397Z,3308.00
2018-09-22T08:34:01.270Z,3140.00
2018-09-22T08:35:01.143Z,3020.00
2018-09-22T08:36:01.132Z,3600.00
2018-09-22T08:37:01.145Z,3072.00
2018-09-22T08:38:00.763Z,2720.00
2018-09-22T08:39:00.646Z,2748.00
2018-09-22T08:40:00.509Z,3068.00
2018-09-22T08:41:00.392Z,3336.00
2018-09-22T08:42:00.270Z,3576.00
2018-09-22T08:43:00.134Z,3616.00
2018-09-22T08:44:00.080Z,3572.00
2018-09-22T08:44:59.887Z,3988.00
2018-09-22T08:45:59.758Z,4264.00
2018-09-22T08:46:59.622Z,4236.00
2018-09-22T08:47:59.500Z,3548.00
2018-09-22T08:48:59.372Z,4048.00
2018-09-22T08:49:59.291Z,3996.00
2018-09-22T08:50:59.124Z,3824.00
2018-09-22T08:51:58.993Z,3404.00
2018-09-22T08:52:58.869Z,3248.00
2018-09-22T08:53:58.738Z,3356.00
2018-09-22T08:54:58.614Z,3184.00
2018-09-22T08:55:58.496Z,3176.00
2018-09-22T08:56:58.358Z,2976.00
2018-09-22T08:57:58.321Z,3252.00
2018-09-22T08:58:58.110Z,3900.00
2018-09-22T08:59:57.980Z,3956.00
2018-09-22T09:00:57.855Z,3892.00
2018-09-22T09:01:57.729Z,4020.00
2018-09-22T09:02:57.599Z,4016.00
2018-09-22T09:03:57.476Z,4212.00
2018-09-22T09:04:57.372Z,4068.00
2018-09-22T09:05:57.233Z,4408.00
2018-09-22T09:06:57.097Z,4652.00
2018-09-22T09:07:56.970Z,4792.00
2018-09-22T09:08:56.845Z,4312.00
2018-09-22T09:09:56.718Z,4108.00
2018-09-22T09:10:56.597Z,3932.00
2018-09-22T09:11:56.471Z,4400.00
2018-09-22T09:12:56.341Z,4360.00
2018-09-22T09:13:56.217Z,5352.00
2018-09-22T09:14:56.091Z,5796.00
2018-09-22T09:15:55.964Z,5752.00
2018-09-22T09:16:55.871Z,5412.00
2018-09-22T09:17:55.737Z,5104.00
2018-09-22T09:18:55.585Z,5804.00
2018-09-22T09:19:55.459Z,5928.00
2018-09-22T09:20:55.354Z,5208.00
2018-09-22T09:21:55.211Z,4552.00
2018-09-22T09:22:55.085Z,4248.00
2018-09-22T09:23:54.960Z,4248.00
2018-09-22T09:24:54.832Z,4508.00
2018-09-22T09:25:54.709Z,4644.00
2018-09-22T09:26:54.755Z,5556.00
2018-09-22T09:27:54.457Z,6116.00
2018-09-22T09:28:54.334Z,5960.00
2018-09-22T09:29:54.380Z,6480.00
2018-09-22T09:30:54.081Z,5732.00
2018-09-22T09:31:53.956Z,6248.00
2018-09-22T09:32:53.831Z,5964.00
2018-09-22T09:33:53.710Z,5672.00
2018-09-22T09:34:53.582Z,5584.00
2018-09-22T09:35:53.461Z,5236.00
2018-09-22T09:36:53.329Z,5404.00
2018-09-22T09:37:53.315Z,5524.00
2018-09-22T09:38:53.082Z,5148.00
2018-09-22T09:39:52.954Z,5148.00
2018-09-22T09:40:52.830Z,5108.00
2018-09-22T09:41:52.706Z,5144.00
2018-09-22T09:42:52.582Z,5292.00
2018-09-22T09:43:52.455Z,4844.00
2018-09-22T09:44:52.331Z,4704.00
2018-09-22T09:45:52.230Z,4956.00
2018-09-22T09:46:52.080Z,5276.00
2018-09-22T09:47:51.961Z,5140.00
2018-09-22T09:48:51.831Z,4924.00
2018-09-22T09:49:51.710Z,5164.00
2018-09-22T09:50:51.580Z,5580.00
2018-09-22T09:51:51.455Z,5540.00
2018-09-22T09:52:51.330Z,5344.00
2018-09-22T09:53:51.205Z,5768.00
2018-09-22T09:54:51.142Z,6252.00
2018-09-22T09:55:50.956Z,5992.00
2018-09-22T09:56:50.901Z,5836.00
2018-09-22T09:57:50.708Z,6476.00
2018-09-22T09:58:50.583Z,6648.00
2018-09-22T09:59:50.545Z,6300.00
2018-09-22T10:00:50.332Z,5624.00
2018-09-22T10:01:50.208Z,4708.00
2018-09-22T10:02:50.086Z,4748.00
2018-09-22T10:03:49.958Z,4732.00
2018-09-22T10:04:49.838Z,4056.00
2018-09-22T10:05:49.710Z,3420.00
2018-09-22T10:06:49.628Z,3556.00
2018-09-22T10:07:49.470Z,3984.00
2018-09-22T10:08:49.342Z,4136.00
2018-09-22T10:09:49.212Z,4396.00
2018-09-22T10:10:49.093Z,4248.00
2018-09-22T10:11:49.009Z,3892.00
2018-09-22T10:12:48.839Z,3892.00
2018-09-22T10:13:48.715Z,3920.00
2018-09-22T10:14:48.602Z,3852.00
2018-09-22T10:15:48.466Z,4492.00
2018-09-22T10:16:48.346Z,4280.00
2018-09-22T10:17:48.220Z,4564.00
2018-09-22T10:18:48.096Z,4744.00
2018-09-22T10:19:47.973Z,4752.00
2018-09-22T10:20:47.849Z,4700.00
2018-09-22T10:21:47.724Z,4856.00
2018-09-22T10:22:47.599Z,4744.00
2018-09-22T10:23:47.478Z,4680.00
2018-09-22T10:24:47.350Z,4888.00
2018-09-22T10:25:47.234Z,5260.00
2018-09-22T10:26:47.103Z,4964.00
2018-09-22T10:27:46.979Z,4480.00
2018-09-22T10:28:46.875Z,4488.00
2018-09-22T10:29:46.732Z,4152.00
2018-09-22T10:30:46.607Z,4196.00
2018-09-22T10:31:46.481Z,4108.00
2018-09-22T10:32:46.361Z,3752.00
2018-09-22T10:33:46.237Z,3992.00
2018-09-22T10:34:46.111Z,4156.00
2018-09-22T10:35:45.987Z,4548.00
2018-09-22T10:36:45.861Z,4184.00
2018-09-22T10:37:45.739Z,4444.00
2018-09-22T10:38:45.615Z,4724.00
2018-09-22T10:39:45.499Z,4484.00
2018-09-22T10:40:45.368Z,4492.00
2018-09-22T10:41:45.249Z,4544.00
2018-09-22T10:42:45.126Z,5296.00
2018-09-22T10:43:44.997Z,5620.00
2018-09-22T10:44:44.916Z,5868.00
2018-09-22T10:45:44.809Z,6252.00
2018-09-22T10:46:44.624Z,6820.00
2018-09-22T10:47:44.538Z,6944.00
2018-09-22T10:48:44.378Z,7148.00
2018-09-22T10:49:44.254Z,6472.00
2018-09-22T10:50:44.132Z,6356.00
2018-09-22T10:51:44.008Z,6748.00
2018-09-22T10:52:43.956Z,8088.00
2018-09-22T10:53:43.761Z,6500.00
2018-09-22T10:54:43.651Z,7728.00
2018-09-22T10:55:43.513Z,7292.00
2018-09-22T10:56:43.434Z,7632.00
2018-09-22T10:57:43.335Z,9888.00
2018-09-22T10:58:43.145Z,7516.00
2018-09-22T10:59:43.022Z,9208.00
2018-09-22T11:00:42.897Z,6836.00
2018-09-22T11:01:42.774Z,8444.00
2018-09-22T11:02:42.673Z,7624.00
2018-09-22T11:03:42.530Z,7312.00
2018-09-22T11:04:42.443Z,8696.00
2018-09-22T11:05:42.283Z,6428.00
2018-09-22T11:06:42.163Z,8944.00
2018-09-22T11:07:42.169Z,9120.00
2018-09-22T11:08:41.919Z,7620.00
2018-09-22T11:09:41.804Z,9196.00
2018-09-22T11:10:41.675Z,8752.00
2018-09-22T11:11:41.761Z,8496.00
2018-09-22T11:12:41.496Z,10216.00
2018-09-22T11:13:41.313Z,9148.00
2018-09-22T11:14:41.188Z,6340.00
2018-09-22T11:15:41.068Z,7196.00
2018-09-22T11:16:40.946Z,7220.00
2018-09-22T11:17:40.828Z,8232.00
2018-09-22T11:18:40.786Z,8452.00
2018-09-22T11:19:40.584Z,7020.00
2018-09-22T11:20:40.460Z,6100.00
2018-09-22T11:21:40.403Z,5800.00
2018-09-22T11:22:40.217Z,8444.00
2018-09-22T11:23:40.098Z,8728.00
2018-09-22T11:24:39.973Z,7352.00
2018-09-22T11:25:39.851Z,7568.00
2018-09-22T11:26:39.772Z,7272.00
2018-09-22T11:27:39.637Z,7568.00
2018-09-22T11:28:39.541Z,7388.00
2018-09-22T11:29:39.370Z,6576.00
2018-09-22T11:30:39.245Z,7876.00
2018-09-22T11:31:39.170Z,7904.00
2018-09-22T11:32:39.021Z,7540.00
2018-09-22T11:33:38.879Z,8012.00
2018-09-22T11:34:38.759Z,7204.00
2018-09-22T11:35:38.637Z,7360.00
2018-09-22T11:36:38.517Z,8628.00
2018-09-22T11:37:38.395Z,9392.00
2018-09-22T11:38:38.277Z,10400.00
2018-09-22T11:39:38.154Z,10528.00
2018-09-22T11:40:38.034Z,10500.00
2018-09-22T11:41:37.910Z,8748.00
2018-09-22T11:42:37.799Z,11428.00
2018-09-22T11:43:37.671Z,12368.00
2018-09-22T11:44:37.549Z,13376.00
2018-09-22T11:45:37.424Z,13100.00
2018-09-22T11:46:37.305Z,9260.00
2018-09-22T11:47:37.183Z,8624.00
2018-09-22T11:48:37.062Z,8508.00
2018-09-22T11:49:36.955Z,9036.00
2018-09-22T11:50:36.820Z,10932.00
2018-09-22T11:51:36.699Z,11820.00
2018-09-22T11:52:36.682Z,10204.00
2018-09-22T11:53:36.490Z,9652.00
2018-09-22T11:54:36.338Z,9276.00
2018-09-22T11:55:36.216Z,8328.00
2018-09-22T11:56:36.173Z,8752.00
2018-09-22T11:57:35.972Z,8212.00
2018-09-22T11:58:35.852Z,10424.00
2018-09-22T11:59:35.734Z,9368.00
2018-09-22T12:00:35.610Z,9636.00
2018-09-22T12:01:35.494Z,9000.00
2018-09-22T12:02:35.369Z,8584.00
2018-09-22T12:03:35.251Z,7144.00
2018-09-22T12:04:35.131Z,7924.00
2018-09-22T12:05:35.009Z,8892.00
2018-09-22T12:06:34.978Z,7956.00
2018-09-22T12:07:34.767Z,7800.00
2018-09-22T12:08:34.646Z,7596.00
2018-09-22T12:09:34.525Z,9820.00
2018-09-22T12:10:34.405Z,10800.00
2018-09-22T12:11:34.285Z,8196.00
2018-09-22T12:12:34.162Z,6580.00
2018-09-22T12:13:34.039Z,7884.00
2018-09-22T12:14:33.920Z,7944.00
2018-09-22T12:15:33.807Z,8904.00
2018-09-22T12:16:33.678Z,8144.00
2018-09-22T12:17:33.560Z,7460.00
2018-09-22T12:18:33.436Z,8148.00
2018-09-22T12:19:33.316Z,9376.00
2018-09-22T12:20:33.195Z,8660.00
2018-09-22T12:21:33.075Z,10004.00
2018-09-22T12:22:32.957Z,9332.00
2018-09-22T12:23:32.835Z,7880.00
2018-09-22T12:24:32.712Z,9556.00
2018-09-22T12:25:32.591Z,9504.00
2018-09-22T12:26:32.469Z,9012.00
2018-09-22T12:27:32.356Z,10000.00
2018-09-22T12:28:32.242Z,10008.00
2018-09-22T12:29:32.106Z,8948.00
2018-09-22T12:30:31.988Z,7816.00
2018-09-22T12:31:31.865Z,7708.00
2018-09-22T12:32:31.744Z,8900.00
2018-09-22T12:33:31.623Z,9312.00
2018-09-22T12:34:31.506Z,10012.00
2018-09-22T12:35:31.384Z,11068.00
2018-09-22T12:36:31.262Z,8400.00